sensor_id;sensor_type;location;lat;lon;timestamp;temperature;humidity
6822;DHT22;3449;48.728;8.968;2022-11-30T00:00:20;5.00;99.90
6822;DHT22;3449;48.728;8.968;2022-11-30T00:02:48;5.00;99.90
6822;DHT22;3449;48.728;8.968;2022-11-30T00:05:18;4.90;99.90
6822;DHT22;3449;48.728;8.968;2022-11-30T00:07:45;4.90;99.90
6822;DHT22;3449;48.728;8.968;2022-11-30T00:10:12;4.90;99.90
6822;DHT22;3449;48.728;8.968;2022-11-30T00:12:40;4.90;99.90
6822;DHT22;3449;48.728;8.968;2022-11-30T00:15:08;4.90;99.90
6822;DHT22;3449;48.728;8.968;2022-11-30T00:17:36;4.90;99.90
6822;DHT22;3449;48.728;8.968;2022-11-30T00:20:04;4.90;99.90
6822;DHT22;3449;48.728;8.968;2022-11-30T00:22:31;4.90;99.90
6822;DHT22;3449;48.728;8.968;2022-11-30T00:24:58;4.90;99.90
6822;DHT22;3449;48.728;8.968;2022-11-30T00:27:27;4.90;99.90
6822;DHT22;3449;48.728;8.968;2022-11-30T00:29:56;4.90;99.90
6822;DHT22;3449;48.728;8.968;2022-11-30T00:32:23;4.90;99.90
6822;DHT22;3449;48.728;8.968;2022-11-30T00:34:50;4.90;99.90
6822;DHT22;3449;48.728;8.968;2022-11-30T00:37:17;4.90;99.90
6822;DHT22;3449;48.728;8.968;2022-11-30T00:39:44;4.90;99.90
6822;DHT22;3449;48.728;8.968;2022-11-30T00:42:11;4.90;99.90
6822;DHT22;3449;48.728;8.968;2022-11-30T00:44:38;4.90;99.90
6822;DHT22;3449;48.728;8.968;2022-11-30T00:47:06;4.90;99.90
6822;DHT22;3449;48.728;8.968;2022-11-30T00:49:33;4.90;99.90
6822;DHT22;3449;48.728;8.968;2022-11-30T00:52:00;4.90;99.90
6822;DHT22;3449;48.728;8.968;2022-11-30T00:54:27;4.80;99.90
6822;DHT22;3449;48.728;8.968;2022-11-30T00:56:54;4.90;99.90
6822;DHT22;3449;48.728;8.968;2022-11-30T00:59:21;4.90;99.90
6822;DHT22;3449;48.728;8.968;2022-11-30T01:01:48;4.90;99.90
6822;DHT22;3449;48.728;8.968;2022-11-30T01:04:16;4.90;99.90
6822;DHT22;3449;48.728;8.968;2022-11-30T01:06:43;4.80;99.90
6822;DHT22;3449;48.728;8.968;2022-11-30T01:09:10;4.80;99.90
6822;DHT22;3449;48.728;8.968;2022-11-30T01:11:37;4.80;99.90
6822;DHT22;3449;48.728;8.968;2022-11-30T01:14:04;4.80;99.90
6822;DHT22;3449;48.728;8.968;2022-11-30T01:16:32;4.80;99.90
6822;DHT22;3449;48.728;8.968;2022-11-30T01:18:59;4.80;99.90
6822;DHT22;3449;48.728;8.968;2022-11-30T01:21:28;4.80;99.90
6822;DHT22;3449;48.728;8.968;2022-11-30T01:23:55;4.80;99.90
6822;DHT22;3449;48.728;8.968;2022-11-30T01:26:22;4.80;99.90
6822;DHT22;3449;48.728;8.968;2022-11-30T01:28:50;4.80;99.90
6822;DHT22;3449;48.728;8.968;2022-11-30T01:31:17;4.80;99.90
6822;DHT22;3449;48.728;8.968;2022-11-30T01:33:47;4.70;99.90
6822;DHT22;3449;48.728;8.968;2022-11-30T01:36:16;4.70;99.90
6822;DHT22;3449;48.728;8.968;2022-11-30T01:38:46;4.70;99.90
6822;DHT22;3449;48.728;8.968;2022-11-30T01:41:16;4.70;99.90
6822;DHT22;3449;48.728;8.968;2022-11-30T01:43:46;4.70;99.90
6822;DHT22;3449;48.728;8.968;2022-11-30T01:46:29;4.70;99.90
6822;DHT22;3449;48.728;8.968;2022-11-30T01:49:02;4.80;99.90
6822;DHT22;3449;48.728;8.968;2022-11-30T01:51:33;4.70;99.90
6822;DHT22;3449;48.728;8.968;2022-11-30T01:54:03;4.70;99.90
6822;DHT22;3449;48.728;8.968;2022-11-30T01:56:31;4.80;99.90
6822;DHT22;3449;48.728;8.968;2022-11-30T01:58:59;4.70;99.90
6822;DHT22;3449;48.728;8.968;2022-11-30T02:01:26;4.70;99.90
6822;DHT22;3449;48.728;8.968;2022-11-30T02:03:57;4.70;99.90
6822;DHT22;3449;48.728;8.968;2022-11-30T02:06:25;4.70;99.90
6822;DHT22;3449;48.728;8.968;2022-11-30T02:08:52;4.70;99.90
6822;DHT22;3449;48.728;8.968;2022-11-30T02:11:21;4.70;99.90
6822;DHT22;3449;48.728;8.968;2022-11-30T02:14:04;4.70;99.90
6822;DHT22;3449;48.728;8.968;2022-11-30T02:16:46;4.70;99.90
6822;DHT22;3449;48.728;8.968;2022-11-30T02:19:42;4.70;99.90
6822;DHT22;3449;48.728;8.968;2022-11-30T02:22:22;4.70;99.90
6822;DHT22;3449;48.728;8.968;2022-11-30T02:25:01;4.60;99.90
6822;DHT22;3449;48.728;8.968;2022-11-30T02:27:44;4.60;99.90
6822;DHT22;3449;48.728;8.968;2022-11-30T02:30:18;4.60;99.90
6822;DHT22;3449;48.728;8.968;2022-11-30T02:32:49;4.60;99.90
6822;DHT22;3449;48.728;8.968;2022-11-30T02:35:19;4.60;99.90
6822;DHT22;3449;48.728;8.968;2022-11-30T02:37:48;4.70;99.90
6822;DHT22;3449;48.728;8.968;2022-11-30T02:40:17;4.70;99.90
6822;DHT22;3449;48.728;8.968;2022-11-30T02:42:44;4.70;99.90
6822;DHT22;3449;48.728;8.968;2022-11-30T02:45:12;4.70;99.90
6822;DHT22;3449;48.728;8.968;2022-11-30T02:47:44;4.70;99.90
6822;DHT22;3449;48.728;8.968;2022-11-30T02:50:16;4.70;99.90
6822;DHT22;3449;48.728;8.968;2022-11-30T02:52:44;4.60;99.90
6822;DHT22;3449;48.728;8.968;2022-11-30T02:55:15;4.60;99.90
6822;DHT22;3449;48.728;8.968;2022-11-30T02:57:42;4.70;99.90
6822;DHT22;3449;48.728;8.968;2022-11-30T03:00:12;4.60;99.90
6822;DHT22;3449;48.728;8.968;2022-11-30T03:02:41;4.60;99.90
6822;DHT22;3449;48.728;8.968;2022-11-30T03:05:08;4.60;99.90
6822;DHT22;3449;48.728;8.968;2022-11-30T03:07:35;4.60;99.90
6822;DHT22;3449;48.728;8.968;2022-11-30T03:10:04;4.60;99.90
6822;DHT22;3449;48.728;8.968;2022-11-30T03:12:31;4.70;99.90
6822;DHT22;3449;48.728;8.968;2022-11-30T03:14:58;4.70;99.90
6822;DHT22;3449;48.728;8.968;2022-11-30T03:17:24;4.60;99.90
6822;DHT22;3449;48.728;8.968;2022-11-30T03:19:53;4.60;99.90
6822;DHT22;3449;48.728;8.968;2022-11-30T03:22:19;4.60;99.90
6822;DHT22;3449;48.728;8.968;2022-11-30T03:24:46;4.70;99.90
6822;DHT22;3449;48.728;8.968;2022-11-30T03:27:13;4.60;99.90
6822;DHT22;3449;48.728;8.968;2022-11-30T03:29:40;4.70;99.90
6822;DHT22;3449;48.728;8.968;2022-11-30T03:32:07;4.70;99.90
6822;DHT22;3449;48.728;8.968;2022-11-30T03:34:34;4.70;99.90
6822;DHT22;3449;48.728;8.968;2022-11-30T03:37:02;4.60;99.90
6822;DHT22;3449;48.728;8.968;2022-11-30T03:39:29;4.70;99.90
6822;DHT22;3449;48.728;8.968;2022-11-30T03:41:56;4.70;99.90
6822;DHT22;3449;48.728;8.968;2022-11-30T03:44:23;4.70;99.90
6822;DHT22;3449;48.728;8.968;2022-11-30T03:46:50;4.70;99.90
6822;DHT22;3449;48.728;8.968;2022-11-30T03:49:16;4.70;99.90
6822;DHT22;3449;48.728;8.968;2022-11-30T03:51:43;4.70;99.90
6822;DHT22;3449;48.728;8.968;2022-11-30T03:54:12;4.70;99.90
6822;DHT22;3449;48.728;8.968;2022-11-30T03:56:38;4.70;99.90
6822;DHT22;3449;48.728;8.968;2022-11-30T03:59:05;4.70;99.90
6822;DHT22;3449;48.728;8.968;2022-11-30T04:01:32;4.60;99.90
6822;DHT22;3449;48.728;8.968;2022-11-30T04:04:00;4.70;99.90
6822;DHT22;3449;48.728;8.968;2022-11-30T04:06:27;4.60;99.90
6822;DHT22;3449;48.728;8.968;2022-11-30T04:08:54;4.60;99.90
6822;DHT22;3449;48.728;8.968;2022-11-30T04:11:22;4.60;99.90
6822;DHT22;3449;48.728;8.968;2022-11-30T04:13:49;4.60;99.90
6822;DHT22;3449;48.728;8.968;2022-11-30T04:16:16;4.60;99.90
6822;DHT22;3449;48.728;8.968;2022-11-30T04:18:43;4.60;99.90
6822;DHT22;3449;48.728;8.968;2022-11-30T04:21:10;4.60;99.90
6822;DHT22;3449;48.728;8.968;2022-11-30T04:23:38;4.60;99.90
6822;DHT22;3449;48.728;8.968;2022-11-30T04:26:06;4.60;99.90
6822;DHT22;3449;48.728;8.968;2022-11-30T04:28:35;4.60;99.90
6822;DHT22;3449;48.728;8.968;2022-11-30T04:31:02;4.60;99.90
6822;DHT22;3449;48.728;8.968;2022-11-30T04:33:29;4.60;99.90
6822;DHT22;3449;48.728;8.968;2022-11-30T04:35:58;4.60;99.90
6822;DHT22;3449;48.728;8.968;2022-11-30T04:38:26;4.60;99.90
6822;DHT22;3449;48.728;8.968;2022-11-30T04:40:53;4.60;99.90
6822;DHT22;3449;48.728;8.968;2022-11-30T04:43:20;4.60;99.90
6822;DHT22;3449;48.728;8.968;2022-11-30T04:45:49;4.60;99.90
6822;DHT22;3449;48.728;8.968;2022-11-30T04:48:16;4.50;99.90
6822;DHT22;3449;48.728;8.968;2022-11-30T04:50:43;4.60;99.90
6822;DHT22;3449;48.728;8.968;2022-11-30T04:53:10;4.60;99.90
6822;DHT22;3449;48.728;8.968;2022-11-30T04:55:37;4.60;99.90
6822;DHT22;3449;48.728;8.968;2022-11-30T04:58:04;4.60;99.90
6822;DHT22;3449;48.728;8.968;2022-11-30T05:00:32;4.60;99.90
6822;DHT22;3449;48.728;8.968;2022-11-30T05:03:01;4.60;99.90
6822;DHT22;3449;48.728;8.968;2022-11-30T05:05:28;4.60;99.90
6822;DHT22;3449;48.728;8.968;2022-11-30T05:07:56;4.60;99.90
6822;DHT22;3449;48.728;8.968;2022-11-30T05:10:23;4.60;99.90
6822;DHT22;3449;48.728;8.968;2022-11-30T05:12:51;4.50;99.90
6822;DHT22;3449;48.728;8.968;2022-11-30T05:15:18;4.50;99.90
6822;DHT22;3449;48.728;8.968;2022-11-30T05:17:45;4.50;99.90
6822;DHT22;3449;48.728;8.968;2022-11-30T05:20:13;4.50;99.90
6822;DHT22;3449;48.728;8.968;2022-11-30T05:22:40;4.50;99.90
6822;DHT22;3449;48.728;8.968;2022-11-30T05:25:08;4.60;99.90
6822;DHT22;3449;48.728;8.968;2022-11-30T05:27:35;4.60;99.90
6822;DHT22;3449;48.728;8.968;2022-11-30T05:30:04;4.60;99.90
6822;DHT22;3449;48.728;8.968;2022-11-30T05:32:31;4.60;99.90
6822;DHT22;3449;48.728;8.968;2022-11-30T05:34:58;4.60;99.90
6822;DHT22;3449;48.728;8.968;2022-11-30T05:37:26;4.60;99.90
6822;DHT22;3449;48.728;8.968;2022-11-30T05:39:53;4.60;99.90
6822;DHT22;3449;48.728;8.968;2022-11-30T05:42:20;4.60;99.90
6822;DHT22;3449;48.728;8.968;2022-11-30T05:44:47;4.60;99.90
6822;DHT22;3449;48.728;8.968;2022-11-30T05:47:14;4.60;99.90
6822;DHT22;3449;48.728;8.968;2022-11-30T05:49:41;4.60;99.90
6822;DHT22;3449;48.728;8.968;2022-11-30T05:52:08;4.60;99.90
6822;DHT22;3449;48.728;8.968;2022-11-30T05:54:36;4.60;99.90
6822;DHT22;3449;48.728;8.968;2022-11-30T05:57:03;4.60;99.90
6822;DHT22;3449;48.728;8.968;2022-11-30T05:59:30;4.60;99.90
6822;DHT22;3449;48.728;8.968;2022-11-30T06:01:57;4.60;99.90
6822;DHT22;3449;48.728;8.968;2022-11-30T06:04:24;4.60;99.90
6822;DHT22;3449;48.728;8.968;2022-11-30T06:06:51;4.60;99.90
6822;DHT22;3449;48.728;8.968;2022-11-30T06:09:20;4.60;99.90
6822;DHT22;3449;48.728;8.968;2022-11-30T06:11:48;4.60;99.90
6822;DHT22;3449;48.728;8.968;2022-11-30T06:14:15;4.60;99.90
6822;DHT22;3449;48.728;8.968;2022-11-30T06:16:42;4.60;99.90
6822;DHT22;3449;48.728;8.968;2022-11-30T06:19:09;4.60;99.90
6822;DHT22;3449;48.728;8.968;2022-11-30T06:21:36;4.60;99.90
6822;DHT22;3449;48.728;8.968;2022-11-30T06:24:03;4.60;99.90
6822;DHT22;3449;48.728;8.968;2022-11-30T06:26:30;4.60;99.90
6822;DHT22;3449;48.728;8.968;2022-11-30T06:28:58;4.60;99.90
6822;DHT22;3449;48.728;8.968;2022-11-30T06:31:25;4.50;99.90
6822;DHT22;3449;48.728;8.968;2022-11-30T06:33:55;4.60;99.90
6822;DHT22;3449;48.728;8.968;2022-11-30T06:36:22;4.60;99.90
6822;DHT22;3449;48.728;8.968;2022-11-30T06:38:49;4.60;99.90
6822;DHT22;3449;48.728;8.968;2022-11-30T06:41:16;4.60;99.90
6822;DHT22;3449;48.728;8.968;2022-11-30T06:43:43;4.60;99.90
6822;DHT22;3449;48.728;8.968;2022-11-30T06:46:12;4.60;99.90
6822;DHT22;3449;48.728;8.968;2022-11-30T06:48:39;4.60;99.90
6822;DHT22;3449;48.728;8.968;2022-11-30T06:51:07;4.60;99.90
6822;DHT22;3449;48.728;8.968;2022-11-30T06:53:34;4.60;99.90
6822;DHT22;3449;48.728;8.968;2022-11-30T06:56:03;4.60;99.90
6822;DHT22;3449;48.728;8.968;2022-11-30T06:58:31;4.60;99.90
6822;DHT22;3449;48.728;8.968;2022-11-30T07:00:58;4.60;99.90
6822;DHT22;3449;48.728;8.968;2022-11-30T07:03:26;4.60;99.90
6822;DHT22;3449;48.728;8.968;2022-11-30T07:05:53;4.60;99.90
6822;DHT22;3449;48.728;8.968;2022-11-30T07:08:20;4.60;99.90
6822;DHT22;3449;48.728;8.968;2022-11-30T07:10:47;4.60;99.90
6822;DHT22;3449;48.728;8.968;2022-11-30T07:13:16;4.60;99.90
6822;DHT22;3449;48.728;8.968;2022-11-30T07:15:44;4.60;99.90
6822;DHT22;3449;48.728;8.968;2022-11-30T07:18:11;4.60;99.90
6822;DHT22;3449;48.728;8.968;2022-11-30T07:20:39;4.60;99.90
6822;DHT22;3449;48.728;8.968;2022-11-30T07:23:06;4.60;99.90
6822;DHT22;3449;48.728;8.968;2022-11-30T07:25:52;4.60;99.90
6822;DHT22;3449;48.728;8.968;2022-11-30T07:28:36;4.60;99.90
6822;DHT22;3449;48.728;8.968;2022-11-30T07:31:13;4.60;99.90
6822;DHT22;3449;48.728;8.968;2022-11-30T07:33:40;4.70;99.90
6822;DHT22;3449;48.728;8.968;2022-11-30T07:36:09;4.70;99.90
6822;DHT22;3449;48.728;8.968;2022-11-30T07:38:36;4.70;99.90
6822;DHT22;3449;48.728;8.968;2022-11-30T07:41:04;4.70;99.90
6822;DHT22;3449;48.728;8.968;2022-11-30T07:43:31;4.70;99.90
6822;DHT22;3449;48.728;8.968;2022-11-30T07:45:58;4.70;99.90
6822;DHT22;3449;48.728;8.968;2022-11-30T07:48:25;4.70;99.90
6822;DHT22;3449;48.728;8.968;2022-11-30T07:50:52;4.70;99.90
6822;DHT22;3449;48.728;8.968;2022-11-30T07:53:20;4.80;99.90
6822;DHT22;3449;48.728;8.968;2022-11-30T07:55:47;4.80;99.90
6822;DHT22;3449;48.728;8.968;2022-11-30T07:58:14;4.80;99.90
6822;DHT22;3449;48.728;8.968;2022-11-30T08:00:41;4.80;99.90
6822;DHT22;3449;48.728;8.968;2022-11-30T08:03:07;4.80;99.90
6822;DHT22;3449;48.728;8.968;2022-11-30T08:05:34;4.80;99.90
6822;DHT22;3449;48.728;8.968;2022-11-30T08:08:01;4.80;99.90
6822;DHT22;3449;48.728;8.968;2022-11-30T08:10:30;4.80;99.90
6822;DHT22;3449;48.728;8.968;2022-11-30T08:12:56;4.90;99.90
6822;DHT22;3449;48.728;8.968;2022-11-30T08:15:23;4.80;99.90
6822;DHT22;3449;48.728;8.968;2022-11-30T08:17:50;4.80;99.90
6822;DHT22;3449;48.728;8.968;2022-11-30T08:20:20;4.80;99.90
6822;DHT22;3449;48.728;8.968;2022-11-30T08:22:48;4.90;99.90
6822;DHT22;3449;48.728;8.968;2022-11-30T08:25:16;4.90;99.90
6822;DHT22;3449;48.728;8.968;2022-11-30T08:27:44;4.90;99.90
6822;DHT22;3449;48.728;8.968;2022-11-30T08:30:12;4.80;99.90
6822;DHT22;3449;48.728;8.968;2022-11-30T08:32:38;4.80;99.90
6822;DHT22;3449;48.728;8.968;2022-11-30T08:35:06;4.80;99.90
6822;DHT22;3449;48.728;8.968;2022-11-30T08:37:35;4.80;99.90
6822;DHT22;3449;48.728;8.968;2022-11-30T08:40:02;4.80;99.90
6822;DHT22;3449;48.728;8.968;2022-11-30T08:42:29;4.80;99.90
6822;DHT22;3449;48.728;8.968;2022-11-30T08:44:57;4.80;99.90
6822;DHT22;3449;48.728;8.968;2022-11-30T08:47:24;4.80;99.90
6822;DHT22;3449;48.728;8.968;2022-11-30T08:49:51;4.80;99.90
6822;DHT22;3449;48.728;8.968;2022-11-30T08:52:18;4.80;99.90
6822;DHT22;3449;48.728;8.968;2022-11-30T08:54:45;4.80;99.90
6822;DHT22;3449;48.728;8.968;2022-11-30T08:57:13;4.90;99.90
6822;DHT22;3449;48.728;8.968;2022-11-30T08:59:40;4.90;99.90
6822;DHT22;3449;48.728;8.968;2022-11-30T09:02:09;4.90;99.90
6822;DHT22;3449;48.728;8.968;2022-11-30T09:04:36;5.00;99.90
6822;DHT22;3449;48.728;8.968;2022-11-30T09:07:03;5.00;99.90
6822;DHT22;3449;48.728;8.968;2022-11-30T09:09:30;5.10;99.90
6822;DHT22;3449;48.728;8.968;2022-11-30T09:11:58;5.10;99.90
6822;DHT22;3449;48.728;8.968;2022-11-30T09:14:25;5.20;99.90
6822;DHT22;3449;48.728;8.968;2022-11-30T09:16:52;5.00;99.90
6822;DHT22;3449;48.728;8.968;2022-11-30T09:19:20;5.00;99.90
6822;DHT22;3449;48.728;8.968;2022-11-30T09:21:47;5.10;99.90
6822;DHT22;3449;48.728;8.968;2022-11-30T09:24:14;5.10;99.90
6822;DHT22;3449;48.728;8.968;2022-11-30T09:26:41;5.10;99.90
6822;DHT22;3449;48.728;8.968;2022-11-30T09:29:08;5.10;99.90
6822;DHT22;3449;48.728;8.968;2022-11-30T09:31:35;5.10;99.90
6822;DHT22;3449;48.728;8.968;2022-11-30T09:34:02;5.10;99.90
6822;DHT22;3449;48.728;8.968;2022-11-30T09:36:30;5.10;99.90
6822;DHT22;3449;48.728;8.968;2022-11-30T09:38:58;5.10;99.90
6822;DHT22;3449;48.728;8.968;2022-11-30T09:44:33;5.10;99.90
6822;DHT22;3449;48.728;8.968;2022-11-30T09:47:10;5.20;99.90
6822;DHT22;3449;48.728;8.968;2022-11-30T09:49:43;5.30;99.90
6822;DHT22;3449;48.728;8.968;2022-11-30T09:52:16;5.30;99.90
6822;DHT22;3449;48.728;8.968;2022-11-30T09:54:44;5.30;99.90
6822;DHT22;3449;48.728;8.968;2022-11-30T09:57:24;5.30;99.90
6822;DHT22;3449;48.728;8.968;2022-11-30T09:59:54;5.30;99.90
6822;DHT22;3449;48.728;8.968;2022-11-30T10:02:26;5.40;99.90
6822;DHT22;3449;48.728;8.968;2022-11-30T10:04:54;5.50;99.90
6822;DHT22;3449;48.728;8.968;2022-11-30T10:07:35;5.50;99.90
6822;DHT22;3449;48.728;8.968;2022-11-30T10:10:13;5.60;99.90
6822;DHT22;3449;48.728;8.968;2022-11-30T10:12:45;5.60;99.90
6822;DHT22;3449;48.728;8.968;2022-11-30T10:15:25;5.60;99.90
6822;DHT22;3449;48.728;8.968;2022-11-30T10:17:55;5.70;99.90
6822;DHT22;3449;48.728;8.968;2022-11-30T10:20:54;5.80;99.90
6822;DHT22;3449;48.728;8.968;2022-11-30T10:23:43;5.80;99.90
6822;DHT22;3449;48.728;8.968;2022-11-30T10:26:14;5.90;99.90
6822;DHT22;3449;48.728;8.968;2022-11-30T10:28:49;5.90;99.90
6822;DHT22;3449;48.728;8.968;2022-11-30T10:31:18;5.90;99.90
6822;DHT22;3449;48.728;8.968;2022-11-30T10:33:46;5.90;99.90
6822;DHT22;3449;48.728;8.968;2022-11-30T10:36:18;5.90;99.90
6822;DHT22;3449;48.728;8.968;2022-11-30T10:38:49;5.90;99.90
6822;DHT22;3449;48.728;8.968;2022-11-30T10:41:20;5.90;99.90
6822;DHT22;3449;48.728;8.968;2022-11-30T10:43:53;5.90;99.90
6822;DHT22;3449;48.728;8.968;2022-11-30T10:46:26;6.00;99.90
6822;DHT22;3449;48.728;8.968;2022-11-30T10:48:56;6.00;99.90
6822;DHT22;3449;48.728;8.968;2022-11-30T10:51:25;6.10;99.90
6822;DHT22;3449;48.728;8.968;2022-11-30T10:53:54;6.10;99.90
6822;DHT22;3449;48.728;8.968;2022-11-30T10:56:20;6.20;99.90
6822;DHT22;3449;48.728;8.968;2022-11-30T10:58:52;6.00;99.90
6822;DHT22;3449;48.728;8.968;2022-11-30T11:01:31;6.00;99.90
6822;DHT22;3449;48.728;8.968;2022-11-30T11:04:13;6.10;99.90
6822;DHT22;3449;48.728;8.968;2022-11-30T11:06:43;6.00;99.90
6822;DHT22;3449;48.728;8.968;2022-11-30T11:09:32;6.10;99.90
6822;DHT22;3449;48.728;8.968;2022-11-30T11:12:01;6.00;99.90
6822;DHT22;3449;48.728;8.968;2022-11-30T11:14:29;6.10;99.90
6822;DHT22;3449;48.728;8.968;2022-11-30T11:16:57;6.10;99.90
6822;DHT22;3449;48.728;8.968;2022-11-30T11:19:34;6.10;99.90
6822;DHT22;3449;48.728;8.968;2022-11-30T11:22:04;6.10;99.90
6822;DHT22;3449;48.728;8.968;2022-11-30T11:24:33;6.00;99.90
6822;DHT22;3449;48.728;8.968;2022-11-30T11:27:01;6.00;99.90
6822;DHT22;3449;48.728;8.968;2022-11-30T11:29:30;6.00;99.90
6822;DHT22;3449;48.728;8.968;2022-11-30T11:32:06;6.00;99.90
6822;DHT22;3449;48.728;8.968;2022-11-30T11:34:35;5.90;99.90
6822;DHT22;3449;48.728;8.968;2022-11-30T11:37:09;5.80;99.90
6822;DHT22;3449;48.728;8.968;2022-11-30T11:39:40;5.90;99.90
6822;DHT22;3449;48.728;8.968;2022-11-30T11:42:13;5.80;99.90
6822;DHT22;3449;48.728;8.968;2022-11-30T11:44:49;5.70;99.90
6822;DHT22;3449;48.728;8.968;2022-11-30T11:47:23;5.60;99.90
6822;DHT22;3449;48.728;8.968;2022-11-30T11:50:02;5.60;99.90
6822;DHT22;3449;48.728;8.968;2022-11-30T11:52:30;5.60;99.90
6822;DHT22;3449;48.728;8.968;2022-11-30T11:54:59;5.60;99.90
6822;DHT22;3449;48.728;8.968;2022-11-30T11:57:35;5.60;99.90
6822;DHT22;3449;48.728;8.968;2022-11-30T12:00:05;5.50;99.90
6822;DHT22;3449;48.728;8.968;2022-11-30T12:02:36;5.50;99.90
6822;DHT22;3449;48.728;8.968;2022-11-30T12:05:10;5.50;99.90
6822;DHT22;3449;48.728;8.968;2022-11-30T12:07:43;5.50;99.90
6822;DHT22;3449;48.728;8.968;2022-11-30T12:10:24;5.60;99.90
6822;DHT22;3449;48.728;8.968;2022-11-30T12:12:52;5.60;99.90
6822;DHT22;3449;48.728;8.968;2022-11-30T12:15:23;5.60;99.90
6822;DHT22;3449;48.728;8.968;2022-11-30T12:17:57;5.60;99.90
6822;DHT22;3449;48.728;8.968;2022-11-30T12:20:39;5.70;99.90
6822;DHT22;3449;48.728;8.968;2022-11-30T12:23:29;5.70;99.90
6822;DHT22;3449;48.728;8.968;2022-11-30T12:26:06;5.80;99.90
6822;DHT22;3449;48.728;8.968;2022-11-30T12:28:44;5.80;99.90
6822;DHT22;3449;48.728;8.968;2022-11-30T12:31:16;5.80;99.90
6822;DHT22;3449;48.728;8.968;2022-11-30T12:34:01;5.80;99.90
6822;DHT22;3449;48.728;8.968;2022-11-30T12:36:40;5.70;99.90
6822;DHT22;3449;48.728;8.968;2022-11-30T12:39:20;5.70;99.90
6822;DHT22;3449;48.728;8.968;2022-11-30T12:41:56;5.70;99.90
6822;DHT22;3449;48.728;8.968;2022-11-30T12:44:41;5.70;99.90
6822;DHT22;3449;48.728;8.968;2022-11-30T12:47:24;5.70;99.90
6822;DHT22;3449;48.728;8.968;2022-11-30T12:50:05;5.70;99.90
6822;DHT22;3449;48.728;8.968;2022-11-30T12:52:41;5.70;99.90
6822;DHT22;3449;48.728;8.968;2022-11-30T12:55:22;5.70;99.90
6822;DHT22;3449;48.728;8.968;2022-11-30T12:57:58;5.80;99.90
6822;DHT22;3449;48.728;8.968;2022-11-30T13:00:35;5.70;99.90
6822;DHT22;3449;48.728;8.968;2022-11-30T13:03:34;5.70;99.90
6822;DHT22;3449;48.728;8.968;2022-11-30T13:06:07;5.70;99.90
6822;DHT22;3449;48.728;8.968;2022-11-30T13:08:43;5.70;99.90
6822;DHT22;3449;48.728;8.968;2022-11-30T13:11:15;5.70;99.90
6822;DHT22;3449;48.728;8.968;2022-11-30T13:13:49;5.60;99.90
6822;DHT22;3449;48.728;8.968;2022-11-30T13:16:17;5.60;99.90
6822;DHT22;3449;48.728;8.968;2022-11-30T13:18:44;5.50;99.90
6822;DHT22;3449;48.728;8.968;2022-11-30T13:21:17;5.50;99.90
6822;DHT22;3449;48.728;8.968;2022-11-30T13:23:51;5.60;99.90
6822;DHT22;3449;48.728;8.968;2022-11-30T13:26:26;5.50;99.90
6822;DHT22;3449;48.728;8.968;2022-11-30T13:29:12;5.50;99.90
6822;DHT22;3449;48.728;8.968;2022-11-30T13:31:46;5.60;99.90
6822;DHT22;3449;48.728;8.968;2022-11-30T13:34:24;5.60;99.90
6822;DHT22;3449;48.728;8.968;2022-11-30T13:37:00;5.50;99.90
6822;DHT22;3449;48.728;8.968;2022-11-30T13:39:29;5.50;99.90
6822;DHT22;3449;48.728;8.968;2022-11-30T13:42:18;5.60;99.90
6822;DHT22;3449;48.728;8.968;2022-11-30T13:44:50;5.50;99.90
6822;DHT22;3449;48.728;8.968;2022-11-30T13:47:25;5.50;99.90
6822;DHT22;3449;48.728;8.968;2022-11-30T13:49:55;5.50;99.90
6822;DHT22;3449;48.728;8.968;2022-11-30T13:55:56;5.40;99.90
6822;DHT22;3449;48.728;8.968;2022-11-30T13:58:24;5.40;99.90
6822;DHT22;3449;48.728;8.968;2022-11-30T14:01:19;5.40;99.90
6822;DHT22;3449;48.728;8.968;2022-11-30T14:04:21;5.30;99.90
6822;DHT22;3449;48.728;8.968;2022-11-30T14:06:49;5.40;99.90
6822;DHT22;3449;48.728;8.968;2022-11-30T14:09:56;5.30;99.90
6822;DHT22;3449;48.728;8.968;2022-11-30T14:12:43;5.30;99.90
6822;DHT22;3449;48.728;8.968;2022-11-30T14:15:26;5.30;99.90
6822;DHT22;3449;48.728;8.968;2022-11-30T14:17:57;5.30;99.90
6822;DHT22;3449;48.728;8.968;2022-11-30T14:20:30;5.30;99.90
6822;DHT22;3449;48.728;8.968;2022-11-30T14:23:01;5.30;99.90
6822;DHT22;3449;48.728;8.968;2022-11-30T14:25:30;5.20;99.90
6822;DHT22;3449;48.728;8.968;2022-11-30T14:27:59;5.30;99.90
6822;DHT22;3449;48.728;8.968;2022-11-30T14:30:31;5.30;99.90
6822;DHT22;3449;48.728;8.968;2022-11-30T14:33:05;5.20;99.90
6822;DHT22;3449;48.728;8.968;2022-11-30T14:35:38;5.20;99.90
6822;DHT22;3449;48.728;8.968;2022-11-30T14:38:15;5.20;99.90
6822;DHT22;3449;48.728;8.968;2022-11-30T14:40:49;5.20;99.90
6822;DHT22;3449;48.728;8.968;2022-11-30T14:43:17;5.20;99.90
6822;DHT22;3449;48.728;8.968;2022-11-30T14:45:55;5.20;99.90
6822;DHT22;3449;48.728;8.968;2022-11-30T14:48:24;5.20;99.90
6822;DHT22;3449;48.728;8.968;2022-11-30T14:50:53;5.10;99.90
6822;DHT22;3449;48.728;8.968;2022-11-30T14:53:29;5.20;99.90
6822;DHT22;3449;48.728;8.968;2022-11-30T14:56:01;5.20;99.90
6822;DHT22;3449;48.728;8.968;2022-11-30T14:58:34;5.20;99.90
6822;DHT22;3449;48.728;8.968;2022-11-30T15:01:15;5.20;99.90
6822;DHT22;3449;48.728;8.968;2022-11-30T15:03:44;5.10;99.90
6822;DHT22;3449;48.728;8.968;2022-11-30T15:06:14;5.20;99.90
6822;DHT22;3449;48.728;8.968;2022-11-30T15:08:44;5.20;99.90
6822;DHT22;3449;48.728;8.968;2022-11-30T15:11:14;5.20;99.90
6822;DHT22;3449;48.728;8.968;2022-11-30T15:13:45;5.10;99.90
6822;DHT22;3449;48.728;8.968;2022-11-30T15:16:18;5.00;99.90
6822;DHT22;3449;48.728;8.968;2022-11-30T15:18:48;5.00;99.90
6822;DHT22;3449;48.728;8.968;2022-11-30T15:21:19;5.00;99.90
6822;DHT22;3449;48.728;8.968;2022-11-30T15:23:48;5.00;99.90
6822;DHT22;3449;48.728;8.968;2022-11-30T15:26:18;5.00;99.90
6822;DHT22;3449;48.728;8.968;2022-11-30T15:28:53;5.00;99.90
6822;DHT22;3449;48.728;8.968;2022-11-30T15:31:22;5.00;99.90
6822;DHT22;3449;48.728;8.968;2022-11-30T15:33:51;5.00;99.90
6822;DHT22;3449;48.728;8.968;2022-11-30T15:36:18;5.00;99.90
6822;DHT22;3449;48.728;8.968;2022-11-30T15:38:48;5.00;99.90
6822;DHT22;3449;48.728;8.968;2022-11-30T15:41:18;5.00;99.90
6822;DHT22;3449;48.728;8.968;2022-11-30T15:43:49;5.00;99.90
6822;DHT22;3449;48.728;8.968;2022-11-30T15:46:31;5.00;99.90
6822;DHT22;3449;48.728;8.968;2022-11-30T15:49:18;5.00;99.90
6822;DHT22;3449;48.728;8.968;2022-11-30T15:51:59;5.00;99.90
6822;DHT22;3449;48.728;8.968;2022-11-30T15:54:46;5.00;99.90
6822;DHT22;3449;48.728;8.968;2022-11-30T15:57:13;5.00;99.90
6822;DHT22;3449;48.728;8.968;2022-11-30T15:59:40;5.00;99.90
6822;DHT22;3449;48.728;8.968;2022-11-30T16:02:25;4.90;99.90
6822;DHT22;3449;48.728;8.968;2022-11-30T16:05:24;5.00;99.90
6822;DHT22;3449;48.728;8.968;2022-11-30T16:07:53;4.90;99.90
6822;DHT22;3449;48.728;8.968;2022-11-30T16:10:23;4.90;99.90
6822;DHT22;3449;48.728;8.968;2022-11-30T16:12:51;4.90;99.90
6822;DHT22;3449;48.728;8.968;2022-11-30T16:15:21;4.90;99.90
6822;DHT22;3449;48.728;8.968;2022-11-30T16:17:49;4.90;99.90
6822;DHT22;3449;48.728;8.968;2022-11-30T16:20:16;4.90;99.90
6822;DHT22;3449;48.728;8.968;2022-11-30T16:22:47;4.90;99.90
6822;DHT22;3449;48.728;8.968;2022-11-30T16:25:16;4.90;99.90
6822;DHT22;3449;48.728;8.968;2022-11-30T16:27:44;4.90;99.90
6822;DHT22;3449;48.728;8.968;2022-11-30T16:30:14;4.90;99.90
6822;DHT22;3449;48.728;8.968;2022-11-30T16:32:41;4.80;99.90
6822;DHT22;3449;48.728;8.968;2022-11-30T16:35:16;4.90;99.90
6822;DHT22;3449;48.728;8.968;2022-11-30T16:37:45;4.80;99.90
6822;DHT22;3449;48.728;8.968;2022-11-30T16:40:13;4.80;99.90
6822;DHT22;3449;48.728;8.968;2022-11-30T16:42:40;4.80;99.90
6822;DHT22;3449;48.728;8.968;2022-11-30T16:45:12;4.80;99.90